sensor_id;sensor_type;location;lat;lon;timestamp;P1;durP1;ratioP1;P2;durP2;ratioP2
8986;SDS011;4529;51.360;12.474;2022-07-23T00:01:29;6.30;;;5.70;;
8986;SDS011;4529;51.360;12.474;2022-07-23T00:06:33;7.23;;;5.80;;
8986;SDS011;4529;51.360;12.474;2022-07-23T00:11:36;6.50;;;5.90;;
8986;SDS011;4529;51.360;12.474;2022-07-23T00:16:40;6.80;;;6.10;;
8986;SDS011;4529;51.360;12.474;2022-07-23T00:21:43;6.07;;;5.57;;
8986;SDS011;4529;51.360;12.474;2022-07-23T00:26:47;6.40;;;5.73;;
8986;SDS011;4529;51.360;12.474;2022-07-23T00:31:50;6.20;;;5.70;;
8986;SDS011;4529;51.360;12.474;2022-07-23T00:36:54;6.00;;;5.50;;
8986;SDS011;4529;51.360;12.474;2022-07-23T00:41:57;6.07;;;5.53;;
8986;SDS011;4529;51.360;12.474;2022-07-23T00:47:00;6.33;;;5.80;;
8986;SDS011;4529;51.360;12.474;2022-07-23T00:52:04;6.23;;;5.67;;
8986;SDS011;4529;51.360;12.474;2022-07-23T00:57:08;7.57;;;6.17;;
8986;SDS011;4529;51.360;12.474;2022-07-23T01:02:11;6.10;;;5.50;;
8986;SDS011;4529;51.360;12.474;2022-07-23T01:07:15;6.13;;;5.53;;
8986;SDS011;4529;51.360;12.474;2022-07-23T01:12:18;6.60;;;5.80;;
8986;SDS011;4529;51.360;12.474;2022-07-23T01:17:22;7.23;;;6.07;;
8986;SDS011;4529;51.360;12.474;2022-07-23T01:22:28;6.50;;;5.90;;
8986;SDS011;4529;51.360;12.474;2022-07-23T01:27:33;6.07;;;5.57;;
8986;SDS011;4529;51.360;12.474;2022-07-23T01:32:37;6.87;;;6.27;;
8986;SDS011;4529;51.360;12.474;2022-07-23T01:37:41;6.30;;;5.80;;
8986;SDS011;4529;51.360;12.474;2022-07-23T01:42:45;6.43;;;5.90;;
8986;SDS011;4529;51.360;12.474;2022-07-23T01:47:49;6.90;;;6.30;;
8986;SDS011;4529;51.360;12.474;2022-07-23T01:52:53;6.93;;;6.33;;
8986;SDS011;4529;51.360;12.474;2022-07-23T01:57:57;7.20;;;6.50;;
8986;SDS011;4529;51.360;12.474;2022-07-23T02:03:01;7.37;;;6.53;;
8986;SDS011;4529;51.360;12.474;2022-07-23T02:08:06;7.40;;;6.67;;
8986;SDS011;4529;51.360;12.474;2022-07-23T02:13:10;7.07;;;6.40;;
8986;SDS011;4529;51.360;12.474;2022-07-23T02:18:13;9.23;;;6.30;;
8986;SDS011;4529;51.360;12.474;2022-07-23T02:23:17;7.80;;;6.87;;
8986;SDS011;4529;51.360;12.474;2022-07-23T02:28:20;6.70;;;5.70;;
8986;SDS011;4529;51.360;12.474;2022-07-23T02:33:24;7.40;;;6.40;;
8986;SDS011;4529;51.360;12.474;2022-07-23T02:38:27;6.67;;;6.00;;
8986;SDS011;4529;51.360;12.474;2022-07-23T02:43:31;6.40;;;5.90;;
8986;SDS011;4529;51.360;12.474;2022-07-23T02:48:35;7.30;;;6.10;;
8986;SDS011;4529;51.360;12.474;2022-07-23T02:53:38;7.23;;;6.57;;
8986;SDS011;4529;51.360;12.474;2022-07-23T02:58:42;6.97;;;6.27;;
8986;SDS011;4529;51.360;12.474;2022-07-23T03:03:45;6.90;;;6.30;;
8986;SDS011;4529;51.360;12.474;2022-07-23T03:08:49;7.60;;;6.80;;
8986;SDS011;4529;51.360;12.474;2022-07-23T03:13:53;6.93;;;6.23;;
8986;SDS011;4529;51.360;12.474;2022-07-23T03:18:55;8.57;;;6.30;;
8986;SDS011;4529;51.360;12.474;2022-07-23T03:23:59;6.93;;;6.23;;
8986;SDS011;4529;51.360;12.474;2022-07-23T03:29:03;7.23;;;6.40;;
8986;SDS011;4529;51.360;12.474;2022-07-23T03:34:06;7.33;;;6.60;;
8986;SDS011;4529;51.360;12.474;2022-07-23T03:39:10;8.50;;;6.83;;
8986;SDS011;4529;51.360;12.474;2022-07-23T03:44:14;9.80;;;7.33;;
8986;SDS011;4529;51.360;12.474;2022-07-23T03:49:18;7.63;;;6.93;;
8986;SDS011;4529;51.360;12.474;2022-07-23T03:54:23;8.60;;;7.80;;
8986;SDS011;4529;51.360;12.474;2022-07-23T03:59:27;8.30;;;7.50;;
8986;SDS011;4529;51.360;12.474;2022-07-23T04:04:30;9.40;;;6.77;;
8986;SDS011;4529;51.360;12.474;2022-07-23T04:09:34;9.50;;;6.57;;
8986;SDS011;4529;51.360;12.474;2022-07-23T04:14:37;6.87;;;6.03;;
8986;SDS011;4529;51.360;12.474;2022-07-23T04:19:41;6.83;;;6.20;;
8986;SDS011;4529;51.360;12.474;2022-07-23T04:24:44;7.03;;;6.30;;
8986;SDS011;4529;51.360;12.474;2022-07-23T04:29:48;7.53;;;6.80;;
8986;SDS011;4529;51.360;12.474;2022-07-23T04:34:51;7.20;;;6.50;;
8986;SDS011;4529;51.360;12.474;2022-07-23T04:39:54;7.27;;;6.53;;
8986;SDS011;4529;51.360;12.474;2022-07-23T04:44:58;7.77;;;6.90;;
8986;SDS011;4529;51.360;12.474;2022-07-23T04:50:01;7.23;;;6.53;;
8986;SDS011;4529;51.360;12.474;2022-07-23T04:55:05;6.87;;;6.13;;
8986;SDS011;4529;51.360;12.474;2022-07-23T05:00:09;10.33;;;7.37;;
8986;SDS011;4529;51.360;12.474;2022-07-23T05:05:13;8.27;;;7.47;;
8986;SDS011;4529;51.360;12.474;2022-07-23T05:10:17;8.00;;;7.20;;
8986;SDS011;4529;51.360;12.474;2022-07-23T05:15:21;9.00;;;7.63;;
8986;SDS011;4529;51.360;12.474;2022-07-23T05:20:25;10.30;;;7.10;;
8986;SDS011;4529;51.360;12.474;2022-07-23T05:25:29;9.17;;;7.23;;
8986;SDS011;4529;51.360;12.474;2022-07-23T05:30:33;13.63;;;8.13;;
8986;SDS011;4529;51.360;12.474;2022-07-23T05:35:37;13.70;;;7.77;;
8986;SDS011;4529;51.360;12.474;2022-07-23T05:40:41;11.77;;;8.33;;
8986;SDS011;4529;51.360;12.474;2022-07-23T05:45:45;11.53;;;8.30;;
8986;SDS011;4529;51.360;12.474;2022-07-23T05:50:48;11.53;;;7.63;;
8986;SDS011;4529;51.360;12.474;2022-07-23T05:55:52;8.20;;;7.10;;
8986;SDS011;4529;51.360;12.474;2022-07-23T06:00:55;7.73;;;6.87;;
8986;SDS011;4529;51.360;12.474;2022-07-23T06:05:59;9.00;;;6.10;;
8986;SDS011;4529;51.360;12.474;2022-07-23T06:11:02;8.70;;;6.13;;
8986;SDS011;4529;51.360;12.474;2022-07-23T06:16:06;8.87;;;6.30;;
8986;SDS011;4529;51.360;12.474;2022-07-23T06:21:09;7.43;;;5.93;;
8986;SDS011;4529;51.360;12.474;2022-07-23T06:26:13;8.73;;;6.87;;
8986;SDS011;4529;51.360;12.474;2022-07-23T06:31:16;7.47;;;6.77;;
8986;SDS011;4529;51.360;12.474;2022-07-23T06:36:20;16.13;;;6.70;;
8986;SDS011;4529;51.360;12.474;2022-07-23T06:41:23;8.70;;;6.03;;
8986;SDS011;4529;51.360;12.474;2022-07-23T06:46:27;8.67;;;6.17;;
8986;SDS011;4529;51.360;12.474;2022-07-23T06:51:30;8.10;;;6.13;;
8986;SDS011;4529;51.360;12.474;2022-07-23T06:56:34;6.57;;;5.97;;
8986;SDS011;4529;51.360;12.474;2022-07-23T07:01:37;7.70;;;6.00;;
8986;SDS011;4529;51.360;12.474;2022-07-23T07:06:41;6.53;;;5.87;;
8986;SDS011;4529;51.360;12.474;2022-07-23T07:11:44;7.23;;;5.87;;
8986;SDS011;4529;51.360;12.474;2022-07-23T07:16:47;6.83;;;6.00;;
8986;SDS011;4529;51.360;12.474;2022-07-23T07:21:51;7.13;;;6.43;;
8986;SDS011;4529;51.360;12.474;2022-07-23T07:26:54;7.50;;;6.27;;
8986;SDS011;4529;51.360;12.474;2022-07-23T07:31:58;6.93;;;5.87;;
8986;SDS011;4529;51.360;12.474;2022-07-23T07:37:01;6.97;;;6.23;;
8986;SDS011;4529;51.360;12.474;2022-07-23T07:42:05;7.53;;;6.00;;
8986;SDS011;4529;51.360;12.474;2022-07-23T07:47:08;7.57;;;6.20;;
8986;SDS011;4529;51.360;12.474;2022-07-23T07:52:12;8.50;;;6.83;;
8986;SDS011;4529;51.360;12.474;2022-07-23T07:57:15;7.93;;;7.13;;
8986;SDS011;4529;51.360;12.474;2022-07-23T08:02:19;9.37;;;8.20;;
8986;SDS011;4529;51.360;12.474;2022-07-23T08:07:22;9.10;;;8.20;;
8986;SDS011;4529;51.360;12.474;2022-07-23T08:12:26;10.67;;;8.80;;
8986;SDS011;4529;51.360;12.474;2022-07-23T08:17:29;10.23;;;9.17;;
8986;SDS011;4529;51.360;12.474;2022-07-23T08:27:48;11.00;;;9.00;;
8986;SDS011;4529;51.360;12.474;2022-07-23T08:32:59;9.33;;;8.40;;
8986;SDS011;4529;51.360;12.474;2022-07-23T08:38:09;9.97;;;8.20;;
8986;SDS011;4529;51.360;12.474;2022-07-23T08:43:13;9.13;;;8.23;;
8986;SDS011;4529;51.360;12.474;2022-07-23T08:48:19;8.50;;;7.70;;
8986;SDS011;4529;51.360;12.474;2022-07-23T08:53:23;8.10;;;7.30;;
8986;SDS011;4529;51.360;12.474;2022-07-23T08:58:26;7.33;;;6.63;;
8986;SDS011;4529;51.360;12.474;2022-07-23T09:03:32;8.30;;;7.40;;
8986;SDS011;4529;51.360;12.474;2022-07-23T09:08:36;9.40;;;8.20;;
8986;SDS011;4529;51.360;12.474;2022-07-23T09:18:54;10.63;;;9.57;;
8986;SDS011;4529;51.360;12.474;2022-07-23T09:24:06;11.93;;;10.60;;
8986;SDS011;4529;51.360;12.474;2022-07-23T09:29:13;14.10;;;11.50;;
8986;SDS011;4529;51.360;12.474;2022-07-23T09:34:19;11.40;;;10.40;;
8986;SDS011;4529;51.360;12.474;2022-07-23T09:39:32;10.50;;;9.40;;
8986;SDS011;4529;51.360;12.474;2022-07-23T09:44:34;10.00;;;9.10;;
8986;SDS011;4529;51.360;12.474;2022-07-23T09:49:37;9.17;;;8.33;;
8986;SDS011;4529;51.360;12.474;2022-07-23T09:54:41;9.67;;;8.77;;
8986;SDS011;4529;51.360;12.474;2022-07-23T09:59:44;9.60;;;8.60;;
8986;SDS011;4529;51.360;12.474;2022-07-23T10:04:47;10.00;;;8.77;;
8986;SDS011;4529;51.360;12.474;2022-07-23T10:09:51;10.00;;;9.07;;
8986;SDS011;4529;51.360;12.474;2022-07-23T10:14:56;11.23;;;10.10;;
8986;SDS011;4529;51.360;12.474;2022-07-23T10:19:58;10.83;;;9.13;;
8986;SDS011;4529;51.360;12.474;2022-07-23T10:30:42;9.67;;;8.67;;
8986;SDS011;4529;51.360;12.474;2022-07-23T10:36:06;11.00;;;8.90;;
8986;SDS011;4529;51.360;12.474;2022-07-23T10:41:07;10.17;;;9.17;;
8986;SDS011;4529;51.360;12.474;2022-07-23T10:46:24;9.33;;;8.43;;
8986;SDS011;4529;51.360;12.474;2022-07-23T10:51:27;9.57;;;8.60;;
8986;SDS011;4529;51.360;12.474;2022-07-23T11:07:23;9.70;;;8.03;;
8986;SDS011;4529;51.360;12.474;2022-07-23T11:22:47;10.67;;;9.57;;
8986;SDS011;4529;51.360;12.474;2022-07-23T11:27:55;13.33;;;10.90;;
8986;SDS011;4529;51.360;12.474;2022-07-23T11:38:17;12.57;;;11.37;;
8986;SDS011;4529;51.360;12.474;2022-07-23T11:43:20;12.73;;;11.53;;
8986;SDS011;4529;51.360;12.474;2022-07-23T11:48:24;12.93;;;11.63;;
8986;SDS011;4529;51.360;12.474;2022-07-23T11:53:28;13.93;;;11.17;;
8986;SDS011;4529;51.360;12.474;2022-07-23T11:58:33;12.07;;;10.97;;
8986;SDS011;4529;51.360;12.474;2022-07-23T12:03:37;13.37;;;11.83;;
8986;SDS011;4529;51.360;12.474;2022-07-23T12:08:41;11.70;;;10.70;;
8986;SDS011;4529;51.360;12.474;2022-07-23T12:13:44;16.33;;;11.23;;
8986;SDS011;4529;51.360;12.474;2022-07-23T12:18:47;11.87;;;10.67;;
8986;SDS011;4529;51.360;12.474;2022-07-23T12:23:51;10.47;;;9.03;;
8986;SDS011;4529;51.360;12.474;2022-07-23T12:28:55;10.60;;;9.47;;
8986;SDS011;4529;51.360;12.474;2022-07-23T12:33:59;10.03;;;9.10;;
8986;SDS011;4529;51.360;12.474;2022-07-23T12:39:02;11.53;;;8.87;;
8986;SDS011;4529;51.360;12.474;2022-07-23T12:44:15;12.43;;;10.13;;
8986;SDS011;4529;51.360;12.474;2022-07-23T12:49:27;11.30;;;10.17;;
8986;SDS011;4529;51.360;12.474;2022-07-23T12:54:31;11.33;;;10.30;;
8986;SDS011;4529;51.360;12.474;2022-07-23T12:59:36;10.20;;;9.30;;
8986;SDS011;4529;51.360;12.474;2022-07-23T13:04:40;10.23;;;9.20;;
8986;SDS011;4529;51.360;12.474;2022-07-23T13:09:44;11.53;;;10.33;;
8986;SDS011;4529;51.360;12.474;2022-07-23T13:14:48;11.80;;;10.67;;
8986;SDS011;4529;51.360;12.474;2022-07-23T13:19:51;11.20;;;10.10;;
8986;SDS011;4529;51.360;12.474;2022-07-23T13:24:55;10.40;;;9.47;;
8986;SDS011;4529;51.360;12.474;2022-07-23T13:29:58;10.20;;;9.30;;
8986;SDS011;4529;51.360;12.474;2022-07-23T13:35:02;10.53;;;9.53;;
8986;SDS011;4529;51.360;12.474;2022-07-23T13:40:06;9.70;;;8.80;;
8986;SDS011;4529;51.360;12.474;2022-07-23T13:45:09;10.07;;;9.13;;
8986;SDS011;4529;51.360;12.474;2022-07-23T13:50:12;9.70;;;8.80;;
8986;SDS011;4529;51.360;12.474;2022-07-23T13:55:17;10.03;;;9.13;;
8986;SDS011;4529;51.360;12.474;2022-07-23T14:00:21;11.30;;;10.30;;
8986;SDS011;4529;51.360;12.474;2022-07-23T14:05:24;10.13;;;9.17;;
8986;SDS011;4529;51.360;12.474;2022-07-23T14:10:28;11.07;;;9.87;;
8986;SDS011;4529;51.360;12.474;2022-07-23T14:15:32;12.17;;;10.33;;
8986;SDS011;4529;51.360;12.474;2022-07-23T14:20:36;11.93;;;10.83;;
8986;SDS011;4529;51.360;12.474;2022-07-23T14:25:40;23.00;;;12.73;;
8986;SDS011;4529;51.360;12.474;2022-07-23T14:30:44;10.60;;;9.60;;
8986;SDS011;4529;51.360;12.474;2022-07-23T14:35:48;10.33;;;9.43;;
8986;SDS011;4529;51.360;12.474;2022-07-23T14:40:51;10.60;;;9.70;;
8986;SDS011;4529;51.360;12.474;2022-07-23T14:45:55;11.47;;;10.27;;
8986;SDS011;4529;51.360;12.474;2022-07-23T14:50:58;10.33;;;9.33;;
8986;SDS011;4529;51.360;12.474;2022-07-23T14:56:02;13.97;;;9.93;;
8986;SDS011;4529;51.360;12.474;2022-07-23T15:01:06;13.37;;;10.27;;
8986;SDS011;4529;51.360;12.474;2022-07-23T15:06:10;10.53;;;9.50;;
8986;SDS011;4529;51.360;12.474;2022-07-23T15:11:14;10.93;;;9.60;;
8986;SDS011;4529;51.360;12.474;2022-07-23T15:16:18;10.57;;;9.67;;
8986;SDS011;4529;51.360;12.474;2022-07-23T15:21:22;10.27;;;9.17;;
8986;SDS011;4529;51.360;12.474;2022-07-23T15:26:29;10.43;;;9.40;;
8986;SDS011;4529;51.360;12.474;2022-07-23T15:31:29;10.23;;;9.33;;
8986;SDS011;4529;51.360;12.474;2022-07-23T15:36:33;10.17;;;8.80;;
8986;SDS011;4529;51.360;12.474;2022-07-23T15:41:36;9.63;;;8.80;;
8986;SDS011;4529;51.360;12.474;2022-07-23T15:46:40;9.50;;;8.70;;
8986;SDS011;4529;51.360;12.474;2022-07-23T15:51:43;9.97;;;8.97;;
8986;SDS011;4529;51.360;12.474;2022-07-23T15:56:47;9.60;;;8.80;;
8986;SDS011;4529;51.360;12.474;2022-07-23T16:01:50;9.73;;;8.93;;
8986;SDS011;4529;51.360;12.474;2022-07-23T16:06:53;9.57;;;8.77;;
8986;SDS011;4529;51.360;12.474;2022-07-23T16:11:57;9.77;;;8.87;;
8986;SDS011;4529;51.360;12.474;2022-07-23T16:17:00;9.77;;;8.77;;
8986;SDS011;4529;51.360;12.474;2022-07-23T16:22:04;8.80;;;8.10;;
8986;SDS011;4529;51.360;12.474;2022-07-23T16:27:07;10.33;;;8.90;;
8986;SDS011;4529;51.360;12.474;2022-07-23T16:32:11;9.33;;;8.57;;
8986;SDS011;4529;51.360;12.474;2022-07-23T16:37:15;9.47;;;8.57;;
8986;SDS011;4529;51.360;12.474;2022-07-23T16:42:18;10.03;;;8.97;;
8986;SDS011;4529;51.360;12.474;2022-07-23T16:47:23;9.23;;;8.37;;
8986;SDS011;4529;51.360;12.474;2022-07-23T16:52:27;9.80;;;9.00;;
8986;SDS011;4529;51.360;12.474;2022-07-23T16:57:31;9.70;;;8.70;;
8986;SDS011;4529;51.360;12.474;2022-07-23T17:02:35;9.73;;;8.93;;
8986;SDS011;4529;51.360;12.474;2022-07-23T17:07:39;9.67;;;8.77;;
8986;SDS011;4529;51.360;12.474;2022-07-23T17:12:42;9.57;;;8.77;;
8986;SDS011;4529;51.360;12.474;2022-07-23T17:17:46;9.57;;;8.63;;
8986;SDS011;4529;51.360;12.474;2022-07-23T17:22:49;9.10;;;8.20;;
8986;SDS011;4529;51.360;12.474;2022-07-23T17:27:53;8.87;;;8.10;;
8986;SDS011;4529;51.360;12.474;2022-07-23T17:32:57;8.87;;;8.07;;
8986;SDS011;4529;51.360;12.474;2022-07-23T17:38:02;8.50;;;7.70;;
8986;SDS011;4529;51.360;12.474;2022-07-23T17:43:07;8.43;;;7.43;;
8986;SDS011;4529;51.360;12.474;2022-07-23T17:48:10;8.10;;;7.40;;
8986;SDS011;4529;51.360;12.474;2022-07-23T17:53:14;7.97;;;7.27;;
8986;SDS011;4529;51.360;12.474;2022-07-23T17:58:17;7.50;;;6.90;;
8986;SDS011;4529;51.360;12.474;2022-07-23T18:03:20;6.93;;;6.30;;
8986;SDS011;4529;51.360;12.474;2022-07-23T18:08:24;6.27;;;5.67;;
8986;SDS011;4529;51.360;12.474;2022-07-23T18:13:27;6.30;;;5.70;;
8986;SDS011;4529;51.360;12.474;2022-07-23T18:18:31;6.07;;;5.23;;
8986;SDS011;4529;51.360;12.474;2022-07-23T18:23:34;4.20;;;3.90;;
8986;SDS011;4529;51.360;12.474;2022-07-23T18:28:38;6.70;;;3.27;;
8986;SDS011;4529;51.360;12.474;2022-07-23T18:33:41;3.40;;;3.10;;
8986;SDS011;4529;51.360;12.474;2022-07-23T18:38:45;2.93;;;2.70;;
8986;SDS011;4529;51.360;12.474;2022-07-23T18:43:51;2.93;;;2.30;;
8986;SDS011;4529;51.360;12.474;2022-07-23T18:48:56;3.57;;;2.60;;
8986;SDS011;4529;51.360;12.474;2022-07-23T18:54:00;4.43;;;2.40;;
8986;SDS011;4529;51.360;12.474;2022-07-23T18:59:04;2.30;;;2.10;;
8986;SDS011;4529;51.360;12.474;2022-07-23T19:04:08;2.20;;;2.10;;
8986;SDS011;4529;51.360;12.474;2022-07-23T19:09:12;3.60;;;2.10;;
8986;SDS011;4529;51.360;12.474;2022-07-23T19:14:17;2.10;;;2.00;;
8986;SDS011;4529;51.360;12.474;2022-07-23T19:19:21;2.27;;;2.10;;
8986;SDS011;4529;51.360;12.474;2022-07-23T19:24:24;3.20;;;2.10;;
8986;SDS011;4529;51.360;12.474;2022-07-23T19:29:28;2.17;;;2.00;;
8986;SDS011;4529;51.360;12.474;2022-07-23T19:34:32;4.27;;;2.40;;
8986;SDS011;4529;51.360;12.474;2022-07-23T19:39:35;3.13;;;2.60;;
8986;SDS011;4529;51.360;12.474;2022-07-23T19:44:39;2.63;;;2.43;;
8986;SDS011;4529;51.360;12.474;2022-07-23T19:49:42;3.67;;;2.50;;
8986;SDS011;4529;51.360;12.474;2022-07-23T19:54:46;3.23;;;2.93;;
8986;SDS011;4529;51.360;12.474;2022-07-23T19:59:49;3.30;;;3.00;;
8986;SDS011;4529;51.360;12.474;2022-07-23T20:04:54;3.90;;;3.20;;
8986;SDS011;4529;51.360;12.474;2022-07-23T20:09:57;4.00;;;3.30;;
8986;SDS011;4529;51.360;12.474;2022-07-23T20:15:01;3.73;;;2.97;;
8986;SDS011;4529;51.360;12.474;2022-07-23T20:20:05;3.03;;;2.60;;
8986;SDS011;4529;51.360;12.474;2022-07-23T20:25:08;4.07;;;2.80;;
8986;SDS011;4529;51.360;12.474;2022-07-23T20:30:12;2.70;;;2.50;;
8986;SDS011;4529;51.360;12.474;2022-07-23T20:35:15;2.83;;;2.63;;
8986;SDS011;4529;51.360;12.474;2022-07-23T20:40:20;3.60;;;2.40;;
8986;SDS011;4529;51.360;12.474;2022-07-23T20:45:23;2.83;;;2.60;;
8986;SDS011;4529;51.360;12.474;2022-07-23T20:50:27;3.33;;;2.70;;
8986;SDS011;4529;51.360;12.474;2022-07-23T20:55:30;2.90;;;2.70;;
8986;SDS011;4529;51.360;12.474;2022-07-23T21:00:35;3.60;;;3.30;;
8986;SDS011;4529;51.360;12.474;2022-07-23T21:05:38;3.80;;;2.70;;
8986;SDS011;4529;51.360;12.474;2022-07-23T21:10:42;2.90;;;2.70;;
8986;SDS011;4529;51.360;12.474;2022-07-23T21:15:45;4.60;;;2.80;;
8986;SDS011;4529;51.360;12.474;2022-07-23T21:20:49;3.23;;;2.67;;
8986;SDS011;4529;51.360;12.474;2022-07-23T21:25:52;3.10;;;2.87;;
8986;SDS011;4529;51.360;12.474;2022-07-23T21:30:56;2.73;;;2.53;;
8986;SDS011;4529;51.360;12.474;2022-07-23T21:35:59;3.40;;;2.67;;
8986;SDS011;4529;51.360;12.474;2022-07-23T21:41:03;2.83;;;2.47;;
8986;SDS011;4529;51.360;12.474;2022-07-23T21:46:06;2.60;;;2.40;;
8986;SDS011;4529;51.360;12.474;2022-07-23T21:51:10;2.43;;;2.30;;
8986;SDS011;4529;51.360;12.474;2022-07-23T21:56:14;3.43;;;2.30;;
8986;SDS011;4529;51.360;12.474;2022-07-23T22:01:17;2.80;;;2.17;;
8986;SDS011;4529;51.360;12.474;2022-07-23T22:06:21;2.30;;;2.10;;
8986;SDS011;4529;51.360;12.474;2022-07-23T22:11:24;2.60;;;2.40;;
8986;SDS011;4529;51.360;12.474;2022-07-23T22:16:28;3.10;;;2.20;;
8986;SDS011;4529;51.360;12.474;2022-07-23T22:21:31;3.60;;;2.20;;
8986;SDS011;4529;51.360;12.474;2022-07-23T22:26:35;3.83;;;2.47;;
8986;SDS011;4529;51.360;12.474;2022-07-23T22:31:38;3.47;;;2.60;;
8986;SDS011;4529;51.360;12.474;2022-07-23T22:36:41;3.50;;;2.70;;
8986;SDS011;4529;51.360;12.474;2022-07-23T22:41:45;4.60;;;2.80;;
8986;SDS011;4529;51.360;12.474;2022-07-23T22:46:48;2.80;;;2.60;;
8986;SDS011;4529;51.360;12.474;2022-07-23T22:51:52;2.80;;;2.60;;
8986;SDS011;4529;51.360;12.474;2022-07-23T22:56:56;2.50;;;2.40;;
8986;SDS011;4529;51.360;12.474;2022-07-23T23:01:59;2.63;;;2.43;;
8986;SDS011;4529;51.360;12.474;2022-07-23T23:07:02;2.57;;;2.47;;
8986;SDS011;4529;51.360;12.474;2022-07-23T23:12:07;8.83;;;2.60;;
8986;SDS011;4529;51.360;12.474;2022-07-23T23:17:10;3.10;;;2.63;;
8986;SDS011;4529;51.360;12.474;2022-07-23T23:22:14;2.97;;;2.77;;
8986;SDS011;4529;51.360;12.474;2022-07-23T23:27:17;5.33;;;2.87;;
8986;SDS011;4529;51.360;12.474;2022-07-23T23:32:21;3.00;;;2.80;;
8986;SDS011;4529;51.360;12.474;2022-07-23T23:37:24;3.70;;;2.83;;
8986;SDS011;4529;51.360;12.474;2022-07-23T23:42:27;3.10;;;2.70;;
8986;SDS011;4529;51.360;12.474;2022-07-23T23:47:31;3.43;;;2.70;;
8986;SDS011;4529;51.360;12.474;2022-07-23T23:52:34;2.70;;;2.50;;
8986;SDS011;4529;51.360;12.474;2022-07-23T23:57:39;3.03;;;2.80;;
